createdAt,value
2023-10-04T00:02:07.420Z,97.12
2023-10-04T00:04:34.273Z,97.41
2023-10-04T00:07:01.969Z,98.23
2023-10-04T00:09:28.643Z,97.43
2023-10-04T00:11:55.391Z,97.63
2023-10-04T00:14:21.868Z,97.48
2023-10-04T00:16:48.449Z,97.48
2023-10-04T00:19:15.063Z,97.57
2023-10-04T00:21:41.739Z,96.14
2023-10-04T00:24:08.613Z,96.90
2023-10-04T00:26:35.237Z,97.25
2023-10-04T00:29:01.872Z,96.56
2023-10-04T00:31:28.547Z,96.51
2023-10-04T00:33:55.194Z,96.51
2023-10-04T00:36:21.826Z,95.58
2023-10-04T00:38:48.432Z,96.09
2023-10-04T00:41:15.015Z,96.23
2023-10-04T00:43:51.214Z,95.65
2023-10-04T00:46:20.928Z,95.75
2023-10-04T00:48:47.854Z,96.03
2023-10-04T00:51:14.856Z,95.91
2023-10-04T00:53:41.931Z,95.47
2023-10-04T00:56:11.581Z,95.71
2023-10-04T00:58:38.003Z,95.88
2023-10-04T01:01:04.722Z,96.18
2023-10-04T01:03:31.416Z,96.21
2023-10-04T01:05:58.125Z,95.58
2023-10-04T01:08:24.726Z,95.25
2023-10-04T01:10:51.778Z,95.28
2023-10-04T01:13:18.821Z,95.01
2023-10-04T01:15:45.468Z,95.72
2023-10-04T01:18:13.220Z,95.19
2023-10-04T01:20:40.048Z,95.44
2023-10-04T01:23:07.585Z,95.53
2023-10-04T01:25:35.569Z,96.04
2023-10-04T01:28:03.771Z,95.87
2023-10-04T01:30:30.564Z,96.31
2023-10-04T01:32:57.466Z,96.05
2023-10-04T01:35:24.120Z,95.76
2023-10-04T01:37:51.609Z,96.46
2023-10-04T01:40:18.792Z,95.81
2023-10-04T01:42:45.415Z,95.68
2023-10-04T01:45:12.387Z,95.82
2023-10-04T01:47:39.263Z,96.26
2023-10-04T01:50:07.031Z,96.24
2023-10-04T01:52:33.587Z,96.87
2023-10-04T01:55:00.266Z,96.55
2023-10-04T01:57:26.874Z,97.01
2023-10-04T01:59:53.441Z,96.92
2023-10-04T02:02:20.027Z,96.81
2023-10-04T02:04:46.654Z,97.08
2023-10-04T02:07:13.200Z,96.53
2023-10-04T02:09:39.759Z,96.26
2023-10-04T02:12:06.517Z,96.89
2023-10-04T02:14:33.118Z,97.30
2023-10-04T02:16:59.744Z,97.63
2023-10-04T02:19:26.347Z,96.77
2023-10-04T02:21:52.951Z,96.81
2023-10-04T02:24:19.606Z,96.93
2023-10-04T02:26:46.157Z,97.54
2023-10-04T02:29:12.735Z,97.06
2023-10-04T02:31:39.320Z,97.54
2023-10-04T02:34:05.926Z,97.58
2023-10-04T02:36:32.553Z,97.49
2023-10-04T02:38:59.182Z,97.84
2023-10-04T02:41:25.776Z,98.15
2023-10-04T02:43:52.429Z,97.80
2023-10-04T02:46:19.064Z,97.78
2023-10-04T02:48:45.726Z,97.56
2023-10-04T02:51:12.324Z,98.50
2023-10-04T02:53:38.882Z,98.20
2023-10-04T02:56:06.969Z,98.49
2023-10-04T02:58:33.570Z,97.70
2023-10-04T03:01:00.198Z,98.12
2023-10-04T03:03:27.082Z,98.18
2023-10-04T03:05:55.486Z,98.42
2023-10-04T03:08:22.134Z,98.31
2023-10-04T03:10:48.629Z,97.81
2023-10-04T03:13:15.216Z,98.05
2023-10-04T03:15:41.770Z,98.01
2023-10-04T03:18:08.573Z,98.81
2023-10-04T03:20:35.212Z,98.73
2023-10-04T03:23:01.937Z,98.19
2023-10-04T03:25:28.449Z,98.22
2023-10-04T03:27:55.148Z,98.36
2023-10-04T03:30:21.889Z,98.33
2023-10-04T03:32:49.790Z,98.19
2023-10-04T03:35:16.443Z,99.02
2023-10-04T03:37:43.403Z,97.79
2023-10-04T03:40:10.066Z,98.75
2023-10-04T03:42:36.623Z,98.19
2023-10-04T03:45:03.336Z,99.04
2023-10-04T03:47:29.973Z,98.36
2023-10-04T03:49:56.467Z,98.50
2023-10-04T03:52:23.080Z,98.14
2023-10-04T03:54:49.629Z,98.60
2023-10-04T03:57:16.223Z,98.57
2023-10-04T03:59:42.854Z,98.15
2023-10-04T04:02:09.454Z,98.65
2023-10-04T04:04:36.216Z,98.27
2023-10-04T04:07:02.945Z,97.99
2023-10-04T04:09:29.576Z,97.91
2023-10-04T04:11:56.160Z,98.29
2023-10-04T04:14:23.203Z,98.32
2023-10-04T04:16:49.980Z,98.40
2023-10-04T04:19:16.594Z,98.48
2023-10-04T04:21:43.235Z,98.67
2023-10-04T04:24:09.940Z,98.20
2023-10-04T04:26:36.600Z,98.36
2023-10-04T04:29:03.366Z,98.09
2023-10-04T04:31:30.629Z,99.00
2023-10-04T04:33:57.299Z,97.99
2023-10-04T04:36:23.984Z,98.11
2023-10-04T04:38:50.516Z,98.24
2023-10-04T04:41:17.038Z,98.37
2023-10-04T04:43:43.581Z,97.81
2023-10-04T04:46:10.238Z,98.47
2023-10-04T04:48:39.736Z,97.96
2023-10-04T04:51:07.505Z,98.97
2023-10-04T04:53:34.117Z,98.59
2023-10-04T04:56:00.690Z,98.52
2023-10-04T04:58:27.259Z,97.82
2023-10-04T05:00:53.897Z,98.49
2023-10-04T05:03:20.534Z,97.77
2023-10-04T05:05:47.088Z,98.44
2023-10-04T05:08:13.698Z,97.80
2023-10-04T05:10:40.297Z,98.97
2023-10-04T05:13:06.970Z,98.58
2023-10-04T05:15:33.756Z,98.45
2023-10-04T05:18:00.925Z,98.56
2023-10-04T05:20:27.850Z,98.24
2023-10-04T05:22:54.452Z,98.70
2023-10-04T05:25:20.992Z,98.14
2023-10-04T05:27:50.307Z,98.73
2023-10-04T05:30:17.377Z,98.45
2023-10-04T05:32:44.943Z,98.58
2023-10-04T05:35:11.545Z,99.14
2023-10-04T05:37:38.144Z,98.15
2023-10-04T05:40:05.055Z,98.38
2023-10-04T05:42:31.698Z,98.79
2023-10-04T05:44:58.332Z,98.50
2023-10-04T05:47:24.871Z,98.44
2023-10-04T05:49:51.452Z,98.24
2023-10-04T05:52:17.926Z,98.74
2023-10-04T05:54:44.494Z,98.64
2023-10-04T05:57:11.061Z,98.46
2023-10-04T05:59:37.646Z,98.69
2023-10-04T06:02:04.226Z,98.57
2023-10-04T06:04:30.857Z,98.88
2023-10-04T06:06:57.442Z,99.44
2023-10-04T06:09:24.039Z,99.10
2023-10-04T06:11:50.536Z,98.74
2023-10-04T06:14:18.234Z,99.27
2023-10-04T06:16:44.983Z,99.18
2023-10-04T06:19:23.584Z,98.61
2023-10-04T06:21:55.685Z,97.89
2023-10-04T06:24:22.205Z,98.51
2023-10-04T06:26:48.907Z,97.61
2023-10-04T06:29:15.543Z,98.02
2023-10-04T06:31:42.207Z,97.82
2023-10-04T06:34:08.801Z,98.48
2023-10-04T06:36:35.450Z,97.99
2023-10-04T06:39:02.192Z,98.30
2023-10-04T06:41:29.192Z,97.80
2023-10-04T06:43:55.773Z,98.65
2023-10-04T06:46:22.366Z,97.69
2023-10-04T06:48:48.997Z,98.23
2023-10-04T06:51:15.657Z,98.14
2023-10-04T06:53:42.265Z,97.68
2023-10-04T06:56:08.844Z,98.18
2023-10-04T06:58:35.449Z,96.79
2023-10-04T07:01:03.159Z,97.75
2023-10-04T07:03:31.801Z,96.98
2023-10-04T07:05:58.415Z,97.85
2023-10-04T07:08:25.004Z,97.88
2023-10-04T07:10:51.584Z,97.79
2023-10-04T07:13:18.132Z,97.13
2023-10-04T07:15:44.971Z,97.15
2023-10-04T07:18:12.681Z,97.48
2023-10-04T07:20:39.967Z,98.04
2023-10-04T07:23:07.871Z,96.97
2023-10-04T07:25:35.495Z,96.75
2023-10-04T07:28:03.371Z,96.32
2023-10-04T07:30:30.943Z,96.77
2023-10-04T07:32:57.518Z,96.74
2023-10-04T07:35:24.139Z,96.20
2023-10-04T07:37:50.807Z,96.03
2023-10-04T07:40:17.470Z,96.08
2023-10-04T07:42:47.443Z,96.04
2023-10-04T07:45:15.123Z,95.94
2023-10-04T07:47:42.177Z,95.74
2023-10-04T07:50:10.423Z,95.89
2023-10-04T07:52:40.446Z,95.16
2023-10-04T07:55:07.657Z,94.13
2023-10-04T07:57:34.308Z,94.02
2023-10-04T08:00:00.893Z,94.27
2023-10-04T08:02:27.489Z,93.55
2023-10-04T08:04:54.095Z,93.71
2023-10-04T08:07:20.649Z,94.11
2023-10-04T08:09:47.230Z,94.00
2023-10-04T08:12:13.835Z,93.23
2023-10-04T08:14:40.407Z,92.94
2023-10-04T08:17:07.279Z,92.61
2023-10-04T08:19:34.390Z,92.63
2023-10-04T08:22:00.987Z,93.06
2023-10-04T08:24:27.699Z,92.65
2023-10-04T08:26:55.137Z,92.30
2023-10-04T08:29:23.167Z,92.46
2023-10-04T08:31:49.738Z,92.48
2023-10-04T08:34:16.328Z,91.87
2023-10-04T08:36:42.979Z,90.39
2023-10-04T08:39:09.558Z,90.83
2023-10-04T08:41:36.099Z,91.36
2023-10-04T08:44:02.960Z,91.07
2023-10-04T08:46:29.721Z,90.26
2023-10-04T08:48:56.605Z,89.94
2023-10-04T08:51:28.942Z,90.04
2023-10-04T08:54:14.399Z,89.37
2023-10-04T08:57:06.742Z,88.86
2023-10-04T08:59:33.876Z,88.71
2023-10-04T09:02:00.832Z,87.91
2023-10-04T09:04:27.482Z,87.76
2023-10-04T09:06:54.126Z,88.26
2023-10-04T09:09:20.868Z,88.00
2023-10-04T09:11:47.732Z,86.62
2023-10-04T09:14:14.317Z,86.30
2023-10-04T09:16:41.034Z,85.75
2023-10-04T09:19:09.132Z,85.71
2023-10-04T09:21:38.796Z,85.83
2023-10-04T09:24:09.513Z,85.54
2023-10-04T09:26:40.277Z,84.67
2023-10-04T09:29:06.835Z,84.56
2023-10-04T09:31:51.911Z,83.99
2023-10-04T09:34:18.753Z,84.16
2023-10-04T09:36:45.322Z,83.66
2023-10-04T09:39:12.206Z,83.91
2023-10-04T09:41:40.350Z,83.72
2023-10-04T09:44:18.512Z,83.42
2023-10-04T09:46:49.440Z,83.04
2023-10-04T09:49:16.075Z,82.87
2023-10-04T09:51:43.246Z,83.00
2023-10-04T09:54:09.856Z,83.14
2023-10-04T09:56:44.425Z,82.21
2023-10-04T09:59:12.643Z,82.26
2023-10-04T10:01:39.271Z,81.77
2023-10-04T10:04:08.201Z,82.73
2023-10-04T10:06:42.762Z,81.99
2023-10-04T10:09:09.376Z,81.79
2023-10-04T10:11:35.988Z,81.26
2023-10-04T10:14:02.671Z,80.44
2023-10-04T10:16:29.391Z,80.62
2023-10-04T10:18:56.130Z,80.33
2023-10-04T10:21:22.867Z,79.70
2023-10-04T10:23:56.449Z,78.72
2023-10-04T10:26:23.004Z,79.26
2023-10-04T10:28:56.815Z,79.96
2023-10-04T10:31:23.487Z,79.44
2023-10-04T10:33:50.199Z,78.51
2023-10-04T10:36:24.339Z,78.04
2023-10-04T10:38:54.155Z,78.01
2023-10-04T10:41:29.976Z,78.39
2023-10-04T10:44:17.977Z,78.24
2023-10-04T10:47:06.262Z,79.71
2023-10-04T10:49:38.667Z,79.47
2023-10-04T10:52:05.198Z,79.69
2023-10-04T10:54:31.870Z,79.67
2023-10-04T10:56:58.462Z,76.68
2023-10-04T10:59:25.010Z,76.77
2023-10-04T11:01:51.723Z,77.47
2023-10-04T11:04:18.361Z,76.19
2023-10-04T11:06:44.983Z,76.25
2023-10-04T11:09:11.606Z,75.99
2023-10-04T11:11:38.255Z,75.58
2023-10-04T11:14:05.141Z,75.90
2023-10-04T11:16:32.333Z,76.38
2023-10-04T11:18:59.127Z,76.58
2023-10-04T11:21:25.846Z,76.66
2023-10-04T11:23:52.437Z,76.44
2023-10-04T11:26:18.996Z,76.93
2023-10-04T11:28:45.530Z,76.31
2023-10-04T11:31:12.199Z,76.51
2023-10-04T11:33:54.585Z,74.93
2023-10-04T11:36:25.108Z,74.14
2023-10-04T11:38:52.076Z,74.65
2023-10-04T11:41:19.174Z,74.13
2023-10-04T11:43:45.810Z,73.08
2023-10-04T11:46:12.527Z,72.92
2023-10-04T11:48:39.244Z,72.67
2023-10-04T11:51:06.130Z,71.89
2023-10-04T11:53:37.197Z,72.05
2023-10-04T11:56:04.968Z,71.37
2023-10-04T11:58:31.588Z,70.37
2023-10-04T12:01:07.848Z,70.40
2023-10-04T12:03:35.752Z,69.10
2023-10-04T12:06:02.330Z,68.75
2023-10-04T12:08:29.887Z,69.02
2023-10-04T12:10:56.589Z,68.28
2023-10-04T12:13:23.611Z,66.97
2023-10-04T12:15:50.433Z,65.91
2023-10-04T12:18:17.253Z,65.61
2023-10-04T12:20:43.980Z,65.45
2023-10-04T12:23:10.569Z,65.64
2023-10-04T12:25:37.819Z,65.56
2023-10-04T12:28:04.750Z,65.94
2023-10-04T12:30:31.409Z,66.25
2023-10-04T12:32:58.095Z,67.02
2023-10-04T12:35:24.749Z,67.86
2023-10-04T12:37:51.302Z,68.13
2023-10-04T12:40:17.853Z,68.87
2023-10-04T12:42:45.976Z,69.51
2023-10-04T12:45:12.599Z,69.94
2023-10-04T12:47:39.136Z,70.12
2023-10-04T12:50:05.955Z,70.67
2023-10-04T12:52:33.011Z,71.63
2023-10-04T12:54:59.735Z,71.54
2023-10-04T12:57:26.428Z,71.22
2023-10-04T12:59:53.041Z,71.70
2023-10-04T13:02:19.637Z,71.21
2023-10-04T13:04:46.341Z,70.45
2023-10-04T13:07:13.229Z,71.03
2023-10-04T13:09:56.101Z,70.97
2023-10-04T13:12:24.805Z,70.62
2023-10-04T13:14:53.170Z,71.38
2023-10-04T13:17:22.005Z,70.77
2023-10-04T13:19:48.631Z,70.52
2023-10-04T13:22:15.219Z,69.63
2023-10-04T13:24:41.863Z,68.64
2023-10-04T13:27:08.472Z,69.00
2023-10-04T13:29:35.004Z,68.54
2023-10-04T13:32:01.627Z,68.02
2023-10-04T13:34:28.228Z,67.76
2023-10-04T13:36:56.719Z,68.33
2023-10-04T13:39:23.702Z,68.56
2023-10-04T13:41:50.373Z,69.45
2023-10-04T13:44:16.946Z,70.60
2023-10-04T13:46:43.545Z,69.53
2023-10-04T13:49:10.171Z,70.18
2023-10-04T13:51:36.813Z,71.31
2023-10-04T13:54:03.571Z,71.31
2023-10-04T13:56:30.199Z,72.28
2023-10-04T13:58:56.764Z,71.19
2023-10-04T14:01:23.478Z,70.79
2023-10-04T14:03:50.200Z,70.98
2023-10-04T14:06:16.808Z,72.12
2023-10-04T14:08:43.364Z,71.00
2023-10-04T14:11:09.929Z,71.07
2023-10-04T14:13:36.567Z,69.82
2023-10-04T14:16:03.236Z,70.81
2023-10-04T14:18:29.898Z,71.02
2023-10-04T14:20:56.464Z,71.21
2023-10-04T14:23:23.254Z,71.42
2023-10-04T14:25:49.835Z,71.67
2023-10-04T14:28:16.515Z,71.89
2023-10-04T14:30:43.095Z,72.04
2023-10-04T14:33:09.681Z,72.64
2023-10-04T14:35:36.276Z,72.45
2023-10-04T14:38:02.905Z,71.92
2023-10-04T14:40:32.784Z,72.29
2023-10-04T14:43:03.974Z,72.46
2023-10-04T14:45:30.639Z,73.17
2023-10-04T14:47:57.281Z,73.36
2023-10-04T14:50:23.862Z,73.67
2023-10-04T14:52:50.525Z,73.69
2023-10-04T14:55:17.098Z,74.17
2023-10-04T14:57:48.317Z,74.09
2023-10-04T15:00:15.472Z,74.70
2023-10-04T15:02:42.106Z,74.72
2023-10-04T15:05:09.041Z,74.70
2023-10-04T15:07:35.733Z,74.83
2023-10-04T15:10:02.441Z,75.12
2023-10-04T15:12:29.087Z,75.15
2023-10-04T15:14:56.557Z,74.53
2023-10-04T15:17:23.270Z,74.54
2023-10-04T15:19:49.846Z,74.82
2023-10-04T15:22:16.352Z,74.87
2023-10-04T15:24:43.004Z,75.04
2023-10-04T15:27:09.578Z,74.79
2023-10-04T15:29:36.467Z,75.17
2023-10-04T15:32:03.143Z,75.29
2023-10-04T15:34:29.770Z,75.89
2023-10-04T15:36:56.417Z,75.64
2023-10-04T15:39:23.088Z,76.12
2023-10-04T15:41:49.699Z,75.64
2023-10-04T15:44:16.692Z,75.40
2023-10-04T15:46:44.215Z,75.69
2023-10-04T15:49:11.114Z,75.69
2023-10-04T15:51:37.724Z,75.78
2023-10-04T15:54:04.713Z,76.48
2023-10-04T15:56:31.815Z,76.40
2023-10-04T15:58:58.464Z,76.41
2023-10-04T16:01:25.115Z,76.54
2023-10-04T16:03:51.930Z,76.66
2023-10-04T16:06:18.637Z,76.66
2023-10-04T16:08:45.230Z,76.65
2023-10-04T16:11:11.902Z,76.89
2023-10-04T16:13:38.774Z,77.11
2023-10-04T16:16:05.458Z,77.07
2023-10-04T16:18:32.233Z,77.14
2023-10-04T16:20:58.946Z,77.43
2023-10-04T16:23:25.669Z,77.69
2023-10-04T16:25:52.243Z,78.16
2023-10-04T16:28:18.849Z,78.30
2023-10-04T16:30:45.424Z,78.78
2023-10-04T16:33:12.050Z,78.91
2023-10-04T16:35:38.672Z,78.83
2023-10-04T16:38:05.353Z,78.87
2023-10-04T16:40:31.926Z,79.04
2023-10-04T16:42:58.483Z,79.11
2023-10-04T16:45:25.149Z,79.18
2023-10-04T16:47:51.741Z,79.27
2023-10-04T16:50:19.737Z,79.58
2023-10-04T16:52:51.786Z,79.97
2023-10-04T16:55:18.454Z,80.17
2023-10-04T16:57:45.150Z,80.20
2023-10-04T17:00:12.397Z,80.06
2023-10-04T17:02:39.013Z,80.71
2023-10-04T17:05:06.272Z,80.81
2023-10-04T17:07:33.347Z,80.91
2023-10-04T17:09:59.980Z,81.29
2023-10-04T17:12:26.734Z,81.09
2023-10-04T17:14:53.385Z,81.64
2023-10-04T17:17:19.993Z,81.39
2023-10-04T17:19:49.299Z,81.86
2023-10-04T17:22:16.035Z,82.14
2023-10-04T17:24:42.919Z,82.09
2023-10-04T17:27:09.525Z,82.46
2023-10-04T17:29:36.112Z,82.90
2023-10-04T17:32:02.730Z,82.71
2023-10-04T17:34:29.260Z,82.39
2023-10-04T17:36:55.865Z,82.43
2023-10-04T17:39:22.426Z,82.95
2023-10-04T17:41:48.993Z,82.95
2023-10-04T17:44:16.237Z,82.69
2023-10-04T17:46:43.033Z,83.16
2023-10-04T17:49:09.923Z,82.98
2023-10-04T17:51:36.645Z,83.10
2023-10-04T17:54:03.589Z,83.45
2023-10-04T17:56:30.407Z,83.10
2023-10-04T17:58:57.032Z,83.57
2023-10-04T18:01:23.777Z,83.20
2023-10-04T18:03:50.339Z,83.64
2023-10-04T18:06:16.997Z,83.89
2023-10-04T18:08:43.690Z,83.69
2023-10-04T18:11:10.256Z,83.58
2023-10-04T18:13:36.859Z,83.94
2023-10-04T18:16:03.470Z,83.52
2023-10-04T18:18:30.698Z,83.48
2023-10-04T18:20:57.382Z,83.95
2023-10-04T18:23:23.924Z,83.48
2023-10-04T18:25:50.666Z,84.00
2023-10-04T18:28:17.293Z,83.91
2023-10-04T18:30:43.930Z,83.61
2023-10-04T18:33:10.639Z,83.93
2023-10-04T18:35:37.324Z,84.14
2023-10-04T18:38:03.959Z,84.38
2023-10-04T18:40:30.532Z,84.16
2023-10-04T18:42:57.154Z,84.57
2023-10-04T18:45:23.774Z,84.02
2023-10-04T18:47:50.464Z,84.51
2023-10-04T18:50:17.118Z,84.88
2023-10-04T18:52:43.740Z,84.52
2023-10-04T18:55:10.648Z,85.04
2023-10-04T18:57:37.343Z,85.15
2023-10-04T19:00:04.702Z,85.45
2023-10-04T19:02:31.341Z,85.37
2023-10-04T19:05:05.970Z,85.59
2023-10-04T19:07:33.721Z,86.44
2023-10-04T19:10:00.521Z,85.81
2023-10-04T19:12:27.117Z,86.35
2023-10-04T19:14:53.699Z,85.88
2023-10-04T19:17:20.261Z,86.13
2023-10-04T19:19:46.874Z,86.43
2023-10-04T19:22:13.477Z,86.63
2023-10-04T19:24:40.063Z,86.03
2023-10-04T19:27:06.669Z,86.65
2023-10-04T19:29:33.301Z,86.70
2023-10-04T19:31:59.880Z,86.54
2023-10-04T19:34:26.527Z,86.29
2023-10-04T19:36:53.184Z,85.98
2023-10-04T19:39:19.798Z,86.14
2023-10-04T19:41:46.558Z,86.49
2023-10-04T19:44:13.161Z,86.85
2023-10-04T19:46:39.787Z,86.79
2023-10-04T19:49:06.381Z,86.42
2023-10-04T19:51:32.946Z,87.23
2023-10-04T19:53:59.488Z,86.99
2023-10-04T19:56:26.020Z,87.56
2023-10-04T19:58:52.679Z,87.11
2023-10-04T20:01:19.366Z,87.58
2023-10-04T20:03:46.100Z,87.36
2023-10-04T20:06:12.788Z,87.61
2023-10-04T20:08:39.369Z,86.98
2023-10-04T20:11:06.003Z,87.50
2023-10-04T20:13:32.702Z,87.06
2023-10-04T20:15:59.397Z,87.57
2023-10-04T20:18:26.023Z,87.19
2023-10-04T20:20:52.608Z,87.05
2023-10-04T20:23:19.180Z,87.45
2023-10-04T20:25:45.758Z,87.91
2023-10-04T20:28:12.458Z,88.07
2023-10-04T20:30:41.885Z,87.61
2023-10-04T20:33:08.567Z,87.72
2023-10-04T20:35:35.193Z,87.90
2023-10-04T20:38:01.827Z,88.36
2023-10-04T20:40:28.390Z,88.04
2023-10-04T20:42:55.032Z,87.64
2023-10-04T20:45:21.641Z,88.58
2023-10-04T20:47:48.217Z,88.32
2023-10-04T20:50:14.958Z,88.38
2023-10-04T20:52:41.543Z,88.24
2023-10-04T20:55:08.549Z,87.92
2023-10-04T20:57:35.337Z,88.77
2023-10-04T21:00:02.286Z,88.44
2023-10-04T21:02:28.879Z,89.07
2023-10-04T21:04:55.716Z,88.48
2023-10-04T21:07:22.323Z,88.24
2023-10-04T21:09:49.463Z,89.39
2023-10-04T21:12:16.184Z,88.86
2023-10-04T21:14:42.780Z,89.01
2023-10-04T21:17:09.333Z,89.17
2023-10-04T21:19:35.949Z,89.59
2023-10-04T21:22:03.271Z,89.28
2023-10-04T21:24:30.012Z,89.69
2023-10-04T21:26:56.588Z,89.44
2023-10-04T21:29:23.155Z,88.87
2023-10-04T21:31:49.771Z,89.03
2023-10-04T21:34:16.829Z,89.14
2023-10-04T21:36:43.462Z,89.08
2023-10-04T21:39:10.024Z,89.34
2023-10-04T21:41:36.623Z,89.10
2023-10-04T21:44:04.066Z,89.80
2023-10-04T21:46:31.029Z,88.90
2023-10-04T21:48:57.742Z,88.95
2023-10-04T21:51:24.381Z,88.64
2023-10-04T21:53:50.969Z,89.56
2023-10-04T21:56:17.589Z,89.55
2023-10-04T21:58:44.155Z,89.60
2023-10-04T22:01:10.997Z,89.46
2023-10-04T22:03:37.815Z,89.68
2023-10-04T22:06:04.664Z,89.51
2023-10-04T22:08:31.186Z,89.64
2023-10-04T22:10:57.784Z,89.24
2023-10-04T22:13:24.423Z,89.64
2023-10-04T22:15:54.105Z,90.11
2023-10-04T22:18:20.736Z,90.27
2023-10-04T22:20:47.421Z,89.22
2023-10-04T22:23:14.509Z,89.75
2023-10-04T22:25:41.457Z,89.85
2023-10-04T22:28:08.098Z,89.41
2023-10-04T22:30:34.780Z,89.31
2023-10-04T22:33:01.527Z,89.28
2023-10-04T22:35:28.213Z,89.91
2023-10-04T22:37:54.763Z,88.67
2023-10-04T22:40:21.379Z,88.84
2023-10-04T22:42:47.996Z,89.46
2023-10-04T22:45:14.725Z,88.96
2023-10-04T22:47:48.212Z,89.09
2023-10-04T22:50:17.604Z,88.52
2023-10-04T22:52:44.409Z,88.50
2023-10-04T22:55:11.731Z,88.52
2023-10-04T22:57:38.362Z,88.80
2023-10-04T23:00:08.376Z,88.73
2023-10-04T23:02:35.027Z,88.57
2023-10-04T23:05:01.675Z,88.39
2023-10-04T23:07:28.261Z,87.71
2023-10-04T23:09:54.926Z,87.98
2023-10-04T23:12:21.510Z,88.11
2023-10-04T23:14:48.085Z,88.97
2023-10-04T23:17:14.687Z,89.18
2023-10-04T23:19:41.271Z,88.31
2023-10-04T23:22:07.890Z,88.34
2023-10-04T23:24:34.496Z,88.32
2023-10-04T23:27:01.116Z,88.74
2023-10-04T23:29:27.906Z,88.60
2023-10-04T23:31:54.493Z,88.49
2023-10-04T23:34:21.082Z,88.63
2023-10-04T23:36:47.731Z,88.61
2023-10-04T23:39:14.675Z,88.63
2023-10-04T23:41:41.990Z,88.32
2023-10-04T23:44:08.528Z,88.64
2023-10-04T23:46:35.212Z,88.71
2023-10-04T23:49:01.992Z,88.43
2023-10-04T23:51:28.595Z,88.18
2023-10-04T23:53:55.145Z,88.30
2023-10-04T23:56:21.689Z,88.87
2023-10-04T23:58:48.364Z,88.26
